Time;durP1;ratioP1;P1;durP2;ratioP2;P2;SDS_P1;SDS_P2;PMS_P1;PMS_P2;Temp;Humidity;BMP_temperature;BMP_pressure;BME280_temperature;BME280_humidity;BME280_pressure;Samples;Min_cycle;Max_cycle;Signal;HPM_P1;HPM_P2
2022/03/20 00:01:02;;;;;;;22.83;15.63;;;10.70;40.60;;;;;;6275661;22;20486;-70
2022/03/20 00:03:33;;;;;;;26.27;16.80;;;10.60;40.90;;;;;;6275065;22;19999;-70
2022/03/20 00:05:59;;;;;;;25.50;16.67;;;10.60;40.90;;;;;;6275956;22;20006;-69
2022/03/20 00:08:25;;;;;;;23.13;16.53;;;10.60;41.20;;;;;;6275942;22;20434;-69
2022/03/20 00:10:53;;;;;;;22.67;16.80;;;10.60;41.10;;;;;;6275879;22;20422;-72
2022/03/20 00:13:22;;;;;;;23.03;16.67;;;10.70;40.80;;;;;;6276209;22;20007;-73
2022/03/20 00:15:51;;;;;;;22.50;15.93;;;10.70;40.70;;;;;;6276165;22;20008;-72
2022/03/20 00:18:20;;;;;;;25.20;16.60;;;10.60;41.20;;;;;;6248847;22;20427;-72
2022/03/20 00:20:50;;;;;;;22.48;16.42;;;10.60;40.80;;;;;;6275730;22;20003;-70
2022/03/20 00:23:18;;;;;;;24.33;17.27;;;10.60;41.10;;;;;;6275225;22;20327;-69
2022/03/20 00:25:45;;;;;;;20.53;16.20;;;10.60;41.60;;;;;;6275208;22;20024;-70
2022/03/20 00:28:14;;;;;;;25.20;16.53;;;10.60;41.00;;;;;;6275549;22;20058;-69
2022/03/20 00:30:40;;;;;;;22.33;15.60;;;10.70;41.00;;;;;;6275704;22;20003;-73
2022/03/20 00:33:06;;;;;;;24.07;16.13;;;10.60;40.80;;;;;;6275670;22;20018;-69
2022/03/20 00:35:32;;;;;;;25.60;17.20;;;10.60;41.10;;;;;;6275752;22;20010;-72
2022/03/20 00:37:58;;;;;;;21.30;15.53;;;10.60;40.90;;;;;;6275786;22;20024;-73
2022/03/20 00:40:24;;;;;;;21.90;17.17;;;10.50;41.00;;;;;;6248856;22;20466;-72
2022/03/20 00:42:51;;;;;;;26.70;17.03;;;10.60;41.00;;;;;;6275731;22;20024;-71
2022/03/20 00:45:17;;;;;;;21.37;16.03;;;10.50;41.10;;;;;;6276178;22;20513;-69
2022/03/20 00:47:42;;;;;;;23.53;17.70;;;10.40;41.20;;;;;;6275526;22;19996;-70
2022/03/20 00:50:09;;;;;;;21.23;16.47;;;10.50;40.70;;;;;;6275474;22;19999;-72
2022/03/20 00:52:35;;;;;;;28.13;16.33;;;10.50;40.80;;;;;;6275551;22;20166;-70
2022/03/20 00:55:01;;;;;;;23.23;16.40;;;10.50;41.60;;;;;;6275791;22;20070;-72
2022/03/20 00:57:27;;;;;;;24.47;16.27;;;10.50;41.00;;;;;;6274780;22;20046;-72
2022/03/20 00:59:52;;;;;;;22.30;16.23;;;10.40;41.30;;;;;;6275712;22;20008;-69
2022/03/20 01:02:18;;;;;;;20.87;16.23;;;10.30;41.50;;;;;;6275465;22;19996;-70
2022/03/20 01:04:44;;;;;;;24.60;15.73;;;10.20;41.40;;;;;;6275536;22;20004;-73
2022/03/20 01:07:10;;;;;;;24.93;17.27;;;10.20;41.70;;;;;;6275901;22;20083;-73
2022/03/20 01:09:36;;;;;;;24.37;16.07;;;10.20;41.80;;;;;;6275536;22;19999;-73
2022/03/20 01:12:03;;;;;;;23.20;16.23;;;10.20;41.70;;;;;;6275623;22;20026;-70
2022/03/20 01:14:29;;;;;;;24.87;16.20;;;10.20;41.20;;;;;;6275766;22;20006;-70
2022/03/20 02:25:49;;;;;;;21.23;15.33;;;9.90;40.20;;;;;;6276764;22;20082;-69
2022/03/20 02:28:15;;;;;;;19.17;14.77;;;9.90;39.90;;;;;;6275700;22;20390;-70
2022/03/20 02:30:41;;;;;;;23.10;15.83;;;9.90;40.00;;;;;;6276342;22;20377;-69
2022/03/20 02:33:08;;;;;;;21.67;15.70;;;9.90;39.80;;;;;;6276932;22;19999;-72
2022/03/20 02:35:34;;;;;;;23.00;15.00;;;9.90;39.70;;;;;;6276178;22;20079;-73
2022/03/20 02:38:01;;;;;;;25.27;15.87;;;10.00;39.50;;;;;;6275986;22;20015;-70
2022/03/20 02:40:26;;;;;;;25.03;16.03;;;9.90;39.90;;;;;;6276365;22;20070;-69
2022/03/20 02:42:54;;;;;;;19.47;14.87;;;9.90;39.60;;;;;;6275630;22;20284;-72
2022/03/20 02:45:30;;;;;;;21.50;14.50;;;9.90;39.70;;;;;;6276509;22;20354;-69
2022/03/20 02:48:01;;;;;;;23.93;15.20;;;9.80;39.90;;;;;;6275890;22;20000;-72
2022/03/20 02:50:34;;;;;;;20.57;15.07;;;9.80;40.00;;;;;;6276614;22;20012;-70
2022/03/20 02:53:13;;;;;;;20.83;14.37;;;9.90;39.70;;;;;;6276547;22;20087;-70
2022/03/20 02:55:45;;;;;;;22.57;15.87;;;9.90;39.70;;;;;;6274630;22;20023;-70
2022/03/20 02:58:14;;;;;;;19.90;15.05;;;9.80;39.60;;;;;;6275517;22;20465;-69
2022/03/20 03:00:42;;;;;;;23.53;15.17;;;9.80;39.60;;;;;;6275692;22;20075;-69
2022/03/20 03:03:11;;;;;;;23.10;15.13;;;9.70;40.00;;;;;;6275956;22;20003;-70
2022/03/20 03:05:37;;;;;;;18.30;14.23;;;9.60;40.30;;;;;;6276079;22;19999;-72
2022/03/20 03:10:56;;;;;;;21.77;15.33;;;9.60;40.10;;;;;;6275814;22;20137;-72
2022/03/20 03:13:42;;;;;;;21.43;14.90;;;9.60;40.30;;;;;;6275415;22;20006;-69
2022/03/20 03:16:13;;;;;;;21.57;15.00;;;9.60;40.40;;;;;;6275276;22;20035;-73
2022/03/20 03:18:41;;;;;;;20.83;14.70;;;9.60;40.10;;;;;;6276728;22;20376;-73
2022/03/20 03:21:14;;;;;;;22.80;15.33;;;9.60;40.10;;;;;;6276532;22;20058;-74
2022/03/20 03:23:40;;;;;;;22.20;15.30;;;9.50;40.10;;;;;;6285917;22;20351;-72
2022/03/20 03:26:06;;;;;;;23.97;15.70;;;9.50;39.70;;;;;;6306709;22;20007;-69
2022/03/20 03:28:36;;;;;;;23.50;16.47;;;9.60;39.80;;;;;;6306564;22;20007;-69
2022/03/20 03:31:07;;;;;;;19.40;15.23;;;9.60;40.00;;;;;;6306794;22;20011;-69
2022/03/20 03:33:34;;;;;;;23.20;15.43;;;9.70;40.00;;;;;;6306519;22;20019;-71
2022/03/20 03:36:01;;;;;;;20.53;15.40;;;9.70;39.90;;;;;;6306270;22;20046;-71
2022/03/20 03:38:34;;;;;;;19.27;14.83;;;9.60;40.30;;;;;;6306233;22;20053;-69
2022/03/20 03:41:01;;;;;;;21.47;14.93;;;9.60;40.20;;;;;;6306788;22;20004;-70
2022/03/20 03:43:27;;;;;;;20.27;14.47;;;9.50;40.40;;;;;;6306307;22;20367;-69
2022/03/20 03:45:53;;;;;;;26.43;16.60;;;9.40;41.00;;;;;;6306601;22;20048;-69
2022/03/20 03:48:19;;;;;;;19.30;14.93;;;9.30;41.00;;;;;;6306961;22;20007;-69
2022/03/20 03:50:47;;;;;;;22.60;15.30;;;9.30;40.40;;;;;;6306693;22;20067;-71
2022/03/20 03:53:13;;;;;;;22.43;15.97;;;9.40;40.40;;;;;;6306965;22;20337;-73
2022/03/20 03:55:43;;;;;;;21.67;15.20;;;9.40;40.40;;;;;;6305813;22;20075;-69
2022/03/20 03:58:09;;;;;;;20.27;15.40;;;9.50;40.30;;;;;;6306098;22;20437;-69
2022/03/20 04:00:35;;;;;;;20.53;14.30;;;9.50;40.10;;;;;;6306914;22;19999;-73
2022/03/20 04:03:01;;;;;;;22.30;15.53;;;9.50;40.00;;;;;;6306699;22;20003;-69
2022/03/20 04:05:28;;;;;;;22.23;15.77;;;9.50;40.20;;;;;;6306243;22;19999;-72
2022/03/20 04:07:54;;;;;;;21.37;14.70;;;9.50;39.90;;;;;;6307201;22;20011;-68
2022/03/20 04:10:21;;;;;;;19.43;14.70;;;9.50;39.90;;;;;;6306668;22;20003;-73
2022/03/20 04:12:47;;;;;;;20.90;14.77;;;9.50;39.90;;;;;;6306259;22;20004;-69
2022/03/20 04:15:14;;;;;;;24.33;14.50;;;9.40;40.10;;;;;;6306012;22;20070;-71
2022/03/20 04:17:42;;;;;;;18.40;14.10;;;9.40;40.30;;;;;;6307028;22;20306;-73
2022/03/20 04:20:09;;;;;;;20.10;14.97;;;9.30;40.00;;;;;;6305464;22;20060;-69
2022/03/20 04:22:37;;;;;;;20.47;15.37;;;9.30;40.30;;;;;;6305805;22;20004;-71
2022/03/20 04:25:04;;;;;;;20.73;15.30;;;9.30;40.40;;;;;;6306106;22;20323;-69
2022/03/20 04:27:30;;;;;;;21.43;15.37;;;9.20;40.40;;;;;;6306495;22;20015;-72
2022/03/20 04:29:56;;;;;;;19.87;14.93;;;9.20;41.00;;;;;;6306740;22;20307;-70
2022/03/20 04:32:22;;;;;;;24.07;15.70;;;9.10;41.00;;;;;;6305850;22;20014;-69
2022/03/20 04:34:48;;;;;;;21.67;15.03;;;9.00;41.10;;;;;;6305974;22;20060;-69
2022/03/20 04:37:14;;;;;;;22.03;14.97;;;9.00;41.10;;;;;;6305529;22;20372;-73
2022/03/20 04:39:40;;;;;;;19.87;15.13;;;9.00;41.30;;;;;;6306271;22;19996;-73
2022/03/20 04:42:09;;;;;;;22.40;15.67;;;9.00;41.20;;;;;;6279019;22;20464;-69
2022/03/20 04:44:35;;;;;;;20.03;15.27;;;9.00;41.20;;;;;;6306697;22;20014;-73
2022/03/20 04:47:01;;;;;;;20.03;15.47;;;9.10;41.20;;;;;;6306042;22;20011;-70
2022/03/20 05:00:24;;;;;;;19.33;14.77;;;9.00;41.50;;;;;;6306059;22;20014;-72
2022/03/20 05:02:50;;;;;;;23.03;14.90;;;8.90;41.50;;;;;;6306266;22;20349;-70
2022/03/20 05:05:16;;;;;;;19.00;15.00;;;8.90;41.20;;;;;;6306455;22;20002;-70
2022/03/20 05:07:42;;;;;;;24.23;15.27;;;8.90;41.40;;;;;;6306394;22;20030;-70
2022/03/20 05:15:37;;;;;;;21.77;15.57;;;8.90;41.40;;;;;;6306291;22;20014;-69
2022/03/20 05:18:12;;;;;;;21.10;15.00;;;8.90;41.20;;;;;;6308215;22;20007;-74
2022/03/20 05:20:38;;;;;;;22.00;15.73;;;8.90;41.60;;;;;;6308685;22;20045;-70
2022/03/20 05:23:04;;;;;;;23.30;17.20;;;8.90;42.50;;;;;;6306323;22;20483;-70
2022/03/20 05:25:30;;;;;;;23.03;16.40;;;8.90;42.60;;;;;;6307720;22;20026;-69
2022/03/20 05:27:57;;;;;;;22.80;16.03;;;8.80;43.40;;;;;;6307693;22;19999;-70
2022/03/20 05:30:23;;;;;;;25.10;15.70;;;8.80;42.90;;;;;;6308440;22;19999;-71
2022/03/20 05:32:50;;;;;;;24.40;16.10;;;8.70;43.40;;;;;;6307641;22;20018;-70
2022/03/20 05:35:16;;;;;;;24.63;16.77;;;8.70;43.70;;;;;;6307094;22;20025;-70
2022/03/20 05:37:43;;;;;;;22.17;14.97;;;8.60;43.30;;;;;;6307790;22;20006;-69
2022/03/20 05:40:09;;;;;;;18.90;14.67;;;8.60;43.40;;;;;;6307820;22;20003;-70
2022/03/20 05:42:38;;;;;;;23.03;15.40;;;8.60;42.70;;;;;;6308486;22;20318;-68
2022/03/20 05:45:05;;;;;;;21.87;14.60;;;8.60;42.20;;;;;;6307766;22;20003;-68
2022/03/20 05:47:31;;;;;;;22.83;14.93;;;8.70;42.30;;;;;;6307797;22;20430;-67
2022/03/20 05:50:01;;;;;;;23.27;15.27;;;8.70;42.10;;;;;;6308148;22;20030;-68
2022/03/20 05:52:29;;;;;;;20.20;14.87;;;8.70;42.20;;;;;;6307805;22;20051;-69
2022/03/20 05:54:55;;;;;;;23.20;15.20;;;8.80;42.20;;;;;;6308233;22;20014;-68
2022/03/20 06:00:06;;;;;;;21.00;14.80;;;8.80;42.20;;;;;;6307857;22;20092;-68
2022/03/20 06:02:31;;;;;;;23.67;14.87;;;8.90;42.10;;;;;;6307606;22;20003;-72
2022/03/20 06:04:57;;;;;;;23.20;15.40;;;8.80;42.00;;;;;;6307949;22;19999;-70
2022/03/20 06:07:23;;;;;;;25.80;15.83;;;8.90;42.30;;;;;;6307907;22;20422;-68
2022/03/20 06:09:48;;;;;;;22.03;14.80;;;8.90;42.00;;;;;;6307044;22;19995;-68
2022/03/20 06:12:14;;;;;;;24.60;15.50;;;8.90;41.80;;;;;;6306864;22;20493;-68
2022/03/20 06:14:40;;;;;;;23.70;15.03;;;8.90;41.90;;;;;;6307302;22;20079;-68
2022/03/20 06:17:09;;;;;;;21.10;14.90;;;9.00;42.60;;;;;;6307584;22;20007;-68
2022/03/20 06:19:36;;;;;;;22.30;15.03;;;9.00;42.40;;;;;;6307621;22;19999;-68
2022/03/20 06:22:02;;;;;;;21.77;15.13;;;9.10;42.40;;;;;;6307505;22;20078;-69
2022/03/20 06:24:28;;;;;;;19.13;14.10;;;9.20;42.50;;;;;;6307492;22;20019;-68
2022/03/20 06:26:54;;;;;;;22.43;14.87;;;9.20;42.00;;;;;;6307977;22;20456;-68
2022/03/20 06:29:19;;;;;;;19.83;14.50;;;9.20;42.00;;;;;;6307585;22;19999;-68
2022/03/20 06:31:48;;;;;;;20.80;14.20;;;9.20;41.90;;;;;;6307915;22;20070;-67
2022/03/20 06:34:14;;;;;;;26.00;15.47;;;9.30;41.90;;;;;;6307115;22;20463;-68
2022/03/20 06:36:40;;;;;;;21.10;14.70;;;;;;;;;;6307625;22;20003;-71
2022/03/20 06:39:06;;;;;;;21.30;13.43;;;9.40;40.60;;;;;;6307596;22;20038;-71
2022/03/20 06:41:32;;;;;;;21.43;14.33;;;9.50;41.40;;;;;;6306658;22;20003;-68
2022/03/20 06:43:57;;;;;;;20.83;13.80;;;9.50;41.10;;;;;;6307125;22;20005;-68
2022/03/20 06:46:27;;;;;;;21.63;13.83;;;9.60;40.70;;;;;;6307176;22;20380;-68
2022/03/20 06:48:53;;;;;;;17.80;12.93;;;9.70;41.00;;;;;;6307449;22;20011;-69
2022/03/20 06:51:21;;;;;;;20.53;13.30;;;9.70;40.00;;;;;;6307410;22;20064;-69
2022/03/20 06:53:47;;;;;;;17.30;11.80;;;9.70;39.30;;;;;;6306728;22;20496;-69
2022/03/20 06:56:13;;;;;;;19.37;12.67;;;9.90;39.40;;;;;;6307459;22;20000;-73
2022/03/20 06:58:39;;;;;;;16.70;11.80;;;9.90;38.50;;;;;;6305231;22;20006;-70
2022/03/20 07:01:06;;;;;;;19.17;12.00;;;10.00;38.50;;;;;;6304060;22;20425;-70
2022/03/20 07:03:32;;;;;;;20.03;11.90;;;10.10;37.60;;;;;;6304256;22;20488;-71
2022/03/20 07:05:59;;;;;;;15.03;10.93;;;10.10;37.80;;;;;;6306167;22;20034;-70
2022/03/20 07:08:24;;;;;;;18.67;11.87;;;10.20;37.30;;;;;;6306794;22;20078;-70
2022/03/20 07:10:50;;;;;;;18.33;11.33;;;10.30;37.00;;;;;;6306986;22;20416;-72
2022/03/20 07:16:00;;;;;;;18.67;11.50;;;10.50;45.90;;;;;;6307545;22;20011;-73
2022/03/20 07:18:27;;;;;;;16.27;10.30;;;10.40;35.90;;;;;;6305368;22;20008;-70
2022/03/20 07:20:55;;;;;;;17.50;10.83;;;10.60;38.50;;;;;;6301917;22;20098;-70
2022/03/20 07:23:21;;;;;;;15.90;10.60;;;10.70;41.30;;;;;;6303875;22;20078;-70
2022/03/20 07:31:15;;;;;;;16.57;10.07;;;10.90;38.90;;;;;;6307466;22;20069;-73
2022/03/20 07:33:41;;;;;;;18.33;10.77;;;10.80;35.60;;;;;;6307350;22;20007;-70
2022/03/20 07:36:07;;;;;;;14.83;10.63;;;;;;;;;;6307549;22;20006;-70
2022/03/20 07:38:35;;;;;;;16.03;10.83;;;10.90;33.70;;;;;;6307166;22;20002;-70
2022/03/20 07:41:01;;;;;;;17.93;10.83;;;10.90;34.00;;;;;;6307134;22;20004;-69
2022/03/20 07:43:27;;;;;;;16.85;11.30;;;11.00;33.50;;;;;;6306691;22;19999;-70
2022/03/20 07:45:55;;;;;;;14.40;10.23;;;11.00;32.80;;;;;;6306109;22;20094;-70
2022/03/20 07:48:21;;;;;;;15.87;10.83;;;11.00;32.70;;;;;;6306002;22;20091;-69
2022/03/20 07:50:49;;;;;;;16.38;10.63;;;11.10;32.90;;;;;;6306327;22;20030;-70
2022/03/20 07:53:17;;;;;;;19.55;10.65;;;11.00;33.30;;;;;;6306102;22;20456;-68
2022/03/20 07:55:44;;;;;;;17.35;10.73;;;11.10;33.00;;;;;;6306154;22;20000;-71
2022/03/20 07:58:12;;;;;;;17.10;10.40;;;11.20;32.40;;;;;;6306059;22;20027;-68
2022/03/20 08:00:39;;;;;;;22.50;9.97;;;;;;;;;;6306694;22;20078;-68
2022/03/20 08:03:05;;;;;;;16.83;10.23;;;11.20;32.60;;;;;;6305983;22;20011;-68
2022/03/20 08:05:31;;;;;;;13.45;10.05;;;11.40;38.90;;;;;;6307120;22;20038;-68
2022/03/20 08:07:58;;;;;;;14.25;10.05;;;;;;;;;;6307099;22;19999;-70
2022/03/20 08:10:24;;;;;;;16.15;9.45;;;11.40;31.60;;;;;;6307153;22;20475;-69
2022/03/20 08:12:49;;;;;;;17.65;10.05;;;11.50;32.20;;;;;;6306754;22;20092;-68
2022/03/20 08:15:17;;;;;;;14.05;9.93;;;11.50;31.70;;;;;;6307091;22;20065;-69
2022/03/20 08:17:44;;;;;;;13.75;10.25;;;11.50;32.30;;;;;;6307123;22;20003;-68
2022/03/20 08:20:11;;;;;;;17.05;10.88;;;11.60;31.50;;;;;;6307727;22;20004;-65
2022/03/20 08:22:37;;;;;;;12.80;9.15;;;11.70;32.00;;;;;;6306713;22;20041;-67
2022/03/20 08:25:06;;;;;;;14.00;10.07;;;11.70;30.70;;;;;;6307036;22;20023;-67
2022/03/20 08:27:44;;;;;;;15.10;10.18;;;11.70;31.00;;;;;;6306925;22;20003;-68
2022/03/20 08:30:12;;;;;;;12.85;9.63;;;11.70;31.70;;;;;;6306725;22;20106;-67
2022/03/20 08:32:38;;;;;;;20.38;9.98;;;11.70;31.40;;;;;;6307253;22;20077;-67
2022/03/20 08:35:04;;;;;;;12.63;8.80;;;11.80;31.20;;;;;;6307127;22;20011;-67
2022/03/20 08:37:32;;;;;;;13.98;9.32;;;11.80;31.40;;;;;;6307175;22;19999;-67
2022/03/20 08:39:58;;;;;;;17.30;11.10;;;11.80;31.80;;;;;;6307089;22;19996;-67
2022/03/20 08:42:24;;;;;;;14.52;9.30;;;11.80;31.60;;;;;;6307041;22;20004;-69
2022/03/20 08:44:52;;;;;;;16.63;9.85;;;11.90;31.40;;;;;;6307011;22;20052;-67
2022/03/20 08:47:18;;;;;;;13.23;8.60;;;11.90;31.00;;;;;;6307110;22;20426;-67
2022/03/20 08:49:45;;;;;;;13.98;8.82;;;11.90;30.40;;;;;;6307002;22;20003;-67
2022/03/20 08:52:10;;;;;;;16.95;9.55;;;11.90;30.30;;;;;;6309343;22;20015;-67
2022/03/20 08:54:36;;;;;;;14.68;8.70;;;11.90;31.00;;;;;;6309296;22;19999;-66
2022/03/20 08:57:05;;;;;;;16.85;9.40;;;11.90;30.60;;;;;;6309153;22;20031;-68
2022/03/20 08:59:31;;;;;;;11.80;9.00;;;;;;;;;;6308948;22;20086;-65
2022/03/20 09:01:57;;;;;;;16.15;9.98;;;12.00;29.50;;;;;;6308940;22;20007;-67
2022/03/20 09:04:23;;;;;;;15.30;9.13;;;12.00;31.00;;;;;;6308837;22;20004;-67
2022/03/20 09:06:50;;;;;;;15.95;9.00;;;12.10;30.50;;;;;;6308748;22;20065;-67
2022/03/20 09:09:15;;;;;;;12.63;8.73;;;12.10;31.00;;;;;;6309296;22;20385;-67
2022/03/20 09:11:41;;;;;;;15.05;9.63;;;12.20;30.00;;;;;;6308925;22;20011;-68
2022/03/20 09:14:08;;;;;;;12.68;8.05;;;12.20;30.20;;;;;;6308848;22;20411;-67
2022/03/20 09:19:18;;;;;;;16.35;9.32;;;12.30;29.90;;;;;;6309144;22;20449;-68
2022/03/20 09:21:44;;;;;;;13.60;8.93;;;12.30;30.00;;;;;;6308889;22;20011;-67
2022/03/20 09:24:11;;;;;;;14.20;8.82;;;12.30;30.20;;;;;;6308770;22;20015;-67
2022/03/20 09:26:37;;;;;;;14.27;9.88;;;12.40;29.80;;;;;;6308756;22;20068;-67
2022/03/20 09:29:04;;;;;;;12.20;8.40;;;12.40;30.30;;;;;;6305571;22;20030;-67
2022/03/20 09:31:31;;;;;;;14.70;8.63;;;12.50;30.10;;;;;;6305771;22;20022;-68
2022/03/20 09:33:58;;;;;;;11.73;8.32;;;12.50;29.40;;;;;;6307330;22;19996;-68
2022/03/20 09:36:24;;;;;;;12.25;7.32;;;12.60;30.00;;;;;;6308608;22;20003;-68
2022/03/20 09:38:50;;;;;;;10.63;8.32;;;12.70;30.20;;;;;;6308295;22;20008;-67
2022/03/20 09:41:16;;;;;;;14.55;8.65;;;12.80;29.00;;;;;;6308227;22;20014;-71
2022/03/20 09:43:45;;;;;;;12.38;9.10;;;12.80;30.20;;;;;;6307914;22;19995;-67
2022/03/20 09:46:11;;;;;;;13.57;7.97;;;12.80;28.80;;;;;;6308053;22;19999;-68
2022/03/20 09:48:36;;;;;;;15.13;8.43;;;12.90;31.70;;;;;;6307734;22;19995;-68
2022/03/20 09:51:05;;;;;;;13.88;8.88;;;12.90;29.30;;;;;;6307564;22;20093;-68
2022/03/20 09:53:31;;;;;;;11.55;8.25;;;12.90;30.00;;;;;;6304933;22;20011;-68
2022/03/20 09:55:57;;;;;;;13.55;8.40;;;13.00;29.50;;;;;;6302832;22;20376;-67
2022/03/20 09:58:28;;;;;;;12.70;8.15;;;13.00;28.70;;;;;;6304497;22;20011;-68
2022/03/20 10:00:55;;;;;;;12.30;7.85;;;13.00;29.30;;;;;;6307232;22;19995;-67
2022/03/20 10:03:23;;;;;;;10.95;8.02;;;13.00;28.70;;;;;;6307359;22;19999;-68
2022/03/20 10:06:16;;;;;;;16.27;8.98;;;13.10;28.90;;;;;;6307799;22;20034;-68
2022/03/20 10:08:56;;;;;;;;;;;13.10;29.00;;;;;;6306198;22;20334;-68
2022/03/20 10:11:23;;;;;;;14.68;9.05;;;13.10;28.30;;;;;;6307532;22;19909;-67
2022/03/20 10:14:19;;;;;;;16.50;8.90;;;13.10;28.60;;;;;;6308194;22;20006;-67
2022/03/20 10:17:16;;;;;;;13.43;9.02;;;13.10;28.70;;;;;;6295116;22;20009;-68
2022/03/20 10:19:42;;;;;;;12.43;7.90;;;13.10;29.40;;;;;;6308520;22;20019;-67
2022/03/20 10:22:12;;;;;;;12.75;8.27;;;13.20;29.00;;;;;;6308418;22;20000;-68
2022/03/20 10:24:46;;;;;;;12.23;7.63;;;13.20;28.80;;;;;;6307703;22;20038;-68
2022/03/20 10:27:14;;;;;;;11.57;7.93;;;13.20;28.30;;;;;;6308203;22;20624;-69
2022/03/20 10:29:58;;;;;;;11.15;7.65;;;13.20;28.10;;;;;;6304473;22;20029;-67
2022/03/20 10:32:25;;;;;;;14.70;8.38;;;13.30;28.60;;;;;;6307381;22;20072;-68
2022/03/20 10:34:57;;;;;;;10.70;7.15;;;13.30;27.90;;;;;;6307476;22;20008;-68
2022/03/20 10:37:54;;;;;;;12.65;7.30;;;13.40;27.80;;;;;;6308248;22;20010;-68
2022/03/20 10:40:28;;;;;;;16.38;6.80;;;13.50;28.70;;;;;;6308180;22;20000;-68
2022/03/20 10:43:14;;;;;;;9.23;7.15;;;13.70;27.10;;;;;;6308289;22;20074;-68
2022/03/20 10:45:51;;;;;;;14.90;7.70;;;13.80;27.70;;;;;;6307944;22;20003;-68
2022/03/20 10:48:35;;;;;;;9.85;6.95;;;14.00;27.70;;;;;;6307315;22;19999;-68
2022/03/20 10:51:02;;;;;;;9.48;6.80;;;14.10;27.00;;;;;;6306914;22;20003;-67
2022/03/20 10:53:27;;;;;;;11.40;7.25;;;14.10;27.30;;;;;;6308047;22;20003;-67
2022/03/20 10:56:09;;;;;;;15.07;6.93;;;14.10;26.90;;;;;;6307993;22;19995;-68
2022/03/20 10:58:40;;;;;;;10.32;6.80;;;14.10;27.20;;;;;;6307846;22;20057;-68
2022/03/20 11:01:08;;;;;;;10.65;6.93;;;14.20;27.30;;;;;;6307321;22;20221;-67
2022/03/20 11:03:36;;;;;;;10.10;7.07;;;14.30;27.20;;;;;;6305112;22;20002;-67
2022/03/20 11:06:06;;;;;;;12.00;7.40;;;14.40;26.80;;;;;;6307608;22;19996;-68
2022/03/20 11:08:31;;;;;;;11.68;6.45;;;14.50;27.30;;;;;;6307603;22;20022;-67
2022/03/20 11:11:00;;;;;;;10.48;6.45;;;14.60;26.50;;;;;;6307759;22;20058;-68
2022/03/20 11:13:27;;;;;;;10.13;6.70;;;14.60;26.20;;;;;;6307788;22;20070;-68
2022/03/20 11:15:57;;;;;;;10.38;7.50;;;14.80;27.60;;;;;;6307293;22;20009;-67
2022/03/20 11:18:25;;;;;;;10.40;7.05;;;14.80;26.40;;;;;;6307891;22;19996;-68
2022/03/20 11:20:52;;;;;;;10.57;6.72;;;14.90;27.00;;;;;;6307147;22;20007;-67
2022/03/20 11:23:19;;;;;;;10.98;6.80;;;14.90;26.70;;;;;;6307368;22;20064;-67
2022/03/20 11:25:48;;;;;;;10.57;6.75;;;15.10;26.10;;;;;;6308002;22;20018;-68
2022/03/20 11:28:14;;;;;;;11.32;7.20;;;15.10;26.30;;;;;;6307540;22;20003;-68
2022/03/20 11:30:44;;;;;;;13.13;7.63;;;15.20;26.00;;;;;;6307673;22;19999;-68
2022/03/20 11:33:11;;;;;;;11.05;7.63;;;;;;;;;;6307784;22;20369;-69
2022/03/20 11:35:38;;;;;;;11.13;7.30;;;15.40;26.20;;;;;;6307988;22;20041;-68
2022/03/20 11:38:19;;;;;;;21.23;7.63;;;15.40;26.80;;;;;;6307050;22;20004;-68
2022/03/20 11:41:07;;;;;;;10.35;6.95;;;15.50;26.80;;;;;;6304432;22;20003;-69
2022/03/20 11:43:34;;;;;;;9.95;7.10;;;15.60;26.30;;;;;;6303966;22;20090;-68
2022/03/20 11:46:12;;;;;;;11.32;7.55;;;15.60;26.40;;;;;;6304364;22;19996;-68
2022/03/20 11:48:38;;;;;;;9.38;6.88;;;15.60;25.90;;;;;;6307191;22;20048;-68
2022/03/20 11:51:04;;;;;;;9.07;6.47;;;;;;;;;;6307085;22;20045;-69
2022/03/20 11:53:31;;;;;;;10.43;6.85;;;15.70;26.10;;;;;;6307243;22;20003;-68
2022/03/20 11:55:58;;;;;;;8.32;6.22;;;15.80;26.50;;;;;;6307102;22;20002;-68
2022/03/20 11:58:24;;;;;;;8.73;7.10;;;15.90;26.30;;;;;;6307435;22;20003;-68
2022/03/20 12:01:02;;;;;;;10.93;6.38;;;16.00;26.30;;;;;;6307448;22;20041;-68
2022/03/20 12:03:46;;;;;;;11.15;6.93;;;16.00;26.40;;;;;;6306914;22;20086;-67
2022/03/20 12:06:33;;;;;;;12.35;6.72;;;16.10;25.50;;;;;;6307385;22;20006;-67
2022/03/20 12:09:20;;;;;;;11.18;6.57;;;16.00;25.20;;;;;;6307242;22;20002;-67
2022/03/20 12:12:07;;;;;;;9.60;6.47;;;16.00;25.00;;;;;;6304201;22;20433;-68
2022/03/20 12:14:40;;;;;;;9.57;6.18;;;16.00;26.00;;;;;;6276271;22;20011;-67
2022/03/20 12:17:10;;;;;;;9.60;6.82;;;15.90;25.40;;;;;;6306463;22;19999;-68
2022/03/20 12:19:36;;;;;;;10.13;6.70;;;16.00;25.20;;;;;;6307261;22;20023;-68
2022/03/20 12:22:29;;;;;;;10.73;7.00;;;16.00;25.70;;;;;;6307076;22;19999;-68
2022/03/20 12:24:58;;;;;;;10.75;6.40;;;16.10;26.00;;;;;;6303428;22;20357;-67
2022/03/20 12:27:23;;;;;;;8.63;6.43;;;16.20;25.70;;;;;;6304104;22;20015;-67
2022/03/20 12:29:53;;;;;;;9.70;6.38;;;16.30;25.80;;;;;;6305282;22;20003;-68
2022/03/20 12:32:21;;;;;;;11.02;6.32;;;16.40;24.90;;;;;;6306585;22;20338;-67
2022/03/20 12:34:56;;;;;;;14.40;6.72;;;16.40;25.30;;;;;;6307058;22;19999;-70
2022/03/20 12:37:28;;;;;;;8.68;6.78;;;16.50;25.10;;;;;;6307099;22;20003;-68
2022/03/20 12:39:55;;;;;;;9.65;6.38;;;16.50;25.40;;;;;;6306865;22;20329;-67
2022/03/20 12:42:22;;;;;;;11.32;6.50;;;16.50;25.40;;;;;;6306949;22;20003;-68
2022/03/20 12:44:50;;;;;;;11.20;6.80;;;16.60;24.80;;;;;;6307173;22;20000;-67
2022/03/20 12:47:17;;;;;;;8.77;6.22;;;16.50;24.70;;;;;;6307117;22;20352;-70
2022/03/20 12:49:45;;;;;;;13.68;6.15;;;16.50;24.50;;;;;;6307219;22;20449;-70
2022/03/20 12:52:12;;;;;;;8.35;6.18;;;16.40;24.30;;;;;;6307007;22;20011;-67
2022/03/20 12:54:38;;;;;;;8.50;6.35;;;16.40;24.50;;;;;;6306639;22;20002;-67
2022/03/20 12:57:04;;;;;;;11.07;6.00;;;16.30;24.30;;;;;;6307614;22;20007;-67
2022/03/20 12:59:30;;;;;;;8.13;5.50;;;16.30;24.90;;;;;;6306838;22;20090;-67
2022/03/20 13:02:02;;;;;;;9.18;5.93;;;16.40;24.20;;;;;;6306654;22;20007;-67
2022/03/20 13:04:28;;;;;;;9.25;6.75;;;;;;;;;;6307414;22;20057;-67
2022/03/20 13:06:54;;;;;;;8.98;6.00;;;16.40;48.10;;;;;;6306709;22;19995;-67
2022/03/20 13:09:20;;;;;;;9.82;6.38;;;16.40;24.90;;;;;;6306439;22;20126;-70
2022/03/20 13:11:52;;;;;;;10.50;6.78;;;;;;;;;;6306505;22;20007;-67
2022/03/20 13:14:23;;;;;;;12.90;6.80;;;16.40;24.20;;;;;;6307269;22;20003;-68
2022/03/20 13:16:52;;;;;;;9.85;6.50;;;16.50;24.70;;;;;;6306807;22;20007;-67
2022/03/20 13:19:33;;;;;;;8.38;5.75;;;16.50;24.90;;;;;;6306602;22;20360;-67
2022/03/20 13:22:10;;;;;;;10.35;6.72;;;16.60;24.70;;;;;;6306346;22;20086;-67
2022/03/20 13:24:40;;;;;;;10.18;6.47;;;16.60;24.60;;;;;;6306632;22;20025;-67
2022/03/20 13:27:08;;;;;;;9.07;6.95;;;16.60;24.90;;;;;;6307008;22;20454;-67
2022/03/20 13:29:35;;;;;;;8.32;6.47;;;16.60;25.00;;;;;;6306332;22;20181;-68
2022/03/20 13:32:03;;;;;;;8.30;6.75;;;16.60;24.80;;;;;;6305778;22;20011;-67
2022/03/20 13:34:29;;;;;;;10.73;6.57;;;16.80;27.40;;;;;;6306620;22;20034;-68
2022/03/20 13:37:04;;;;;;;10.10;6.90;;;16.60;24.80;;;;;;6302008;22;20007;-67
2022/03/20 13:39:30;;;;;;;9.23;6.32;;;16.60;25.00;;;;;;6303800;22;20061;-68
2022/03/20 13:41:55;;;;;;;8.30;6.32;;;16.60;24.60;;;;;;6303956;22;20006;-67
2022/03/20 13:44:21;;;;;;;9.07;6.78;;;;;;;;;;6305156;22;20003;-68
2022/03/20 13:46:47;;;;;;;12.63;7.63;;;16.50;24.30;;;;;;6305766;22;20003;-67
2022/03/20 13:49:13;;;;;;;9.15;5.70;;;16.50;25.30;;;;;;6306649;22;20056;-66
2022/03/20 13:51:40;;;;;;;8.57;6.30;;;16.50;24.70;;;;;;6306706;22;20003;-68
2022/03/20 13:54:16;;;;;;;8.10;6.43;;;16.50;24.50;;;;;;6306021;22;20056;-68
2022/03/20 13:56:44;;;;;;;7.90;5.70;;;16.40;24.70;;;;;;6308563;22;20090;-66
2022/03/20 13:59:12;;;;;;;9.63;6.82;;;16.40;24.70;;;;;;6308721;22;20018;-67
2022/03/20 14:01:52;;;;;;;12.40;6.50;;;16.40;25.10;;;;;;6308502;22;20047;-66
2022/03/20 17:24:56;;;;;;;11.52;8.68;;;12.50;26.40;;;;;;6304609;22;20030;-68
2022/03/20 17:27:24;;;;;;;12.50;9.00;;;12.40;26.20;;;;;;6276415;22;20090;-67
2022/03/20 17:29:51;;;;;;;11.45;8.05;;;12.40;26.50;;;;;;6277715;22;20080;-68
2022/03/20 17:32:17;;;;;;;13.38;8.32;;;12.40;26.60;;;;;;6273713;22;20053;-67
2022/03/20 17:34:43;;;;;;;15.55;8.48;;;12.30;26.40;;;;;;6247204;22;20004;-66
2022/03/20 17:37:08;;;;;;;13.40;7.90;;;12.30;26.60;;;;;;6275624;22;19999;-67
2022/03/20 17:39:34;;;;;;;12.45;8.25;;;12.30;26.10;;;;;;6277199;22;20071;-70
2022/03/20 17:42:01;;;;;;;17.75;8.98;;;12.30;26.40;;;;;;6276885;22;20000;-68
2022/03/20 17:44:27;;;;;;;16.08;9.23;;;12.30;26.50;;;;;;6277738;22;20300;-67
2022/03/20 17:46:53;;;;;;;14.45;9.95;;;12.30;26.20;;;;;;6277278;22;20026;-67
2022/03/20 17:49:18;;;;;;;17.50;10.95;;;12.30;26.50;;;;;;6277472;22;20371;-67